LFRO

Lannion-Côte de Granit Airport

Airport
ICAO code
LFRO
IATA Code
LAI
Summary
ICAO Region
EUR
ICAO Territory
Location

, Bretagne

Serving
Lannion
Elevation
290 ft
Coordinates
48° 45' 16" N , 3° 28' 18" W
Metar
Observation
LFRO 271530Z AUTO 25008KT 9999 SCT008 BKN039 BKN076 12/11 Q1012
Station
Lannion / Servel
Date/Time
2022-11-27 15:30:00
Wind direction
250°
Wind speed
08 kts
Lowest cloud amount
scattered clouds
Temperature
12°C
Dew point
11°C
Humidity
93%
QNH
1012 hPa
Weather condition
n/a

Runways

Designator Length Width Surface Rops
11/29 1700 45 ASP Yes/Yes

Airport map

Aerial View

SKYbrary Partners:

Safety knowledge contributed by: